Terminal Aerodrome Forecast
Issued by NWS Cleveland, OH

Home | Current Version | Previous Version | Graphics & Text | Print | Product List | Glossary On
Versions: 1 2 3 4 5 6 7 8 9 10 11 12 13 14 15
876
FTUS41 KCLE 201742
TAFYNG
TAF
KYNG 201742Z 2018/2118 14006KT P6SM BKN025 BKN035
     FM202000 10010KT P6SM SCT025 BKN035
     FM210200 12010KT P6SM BKN060
     FM210800 14010KT P6SM VCSH OVC060
     FM211200 16012KT P6SM SCT025 OVC060
     FM211500 18012G20KT 5SM -RA BR OVC025=

USA.gov is the U.S. government's official web portal to all federal, state and local government web resources and services.